createdAt,value
2023-04-24T00:02:16.918Z,7.18
2023-04-24T00:04:47.461Z,7.07
2023-04-24T00:07:15.325Z,6.87
2023-04-24T00:09:42.967Z,6.40
2023-04-24T00:12:11.358Z,7.25
2023-04-24T00:14:39.333Z,7.62
2023-04-24T00:17:07.126Z,7.68
2023-04-24T00:19:34.869Z,7.50
2023-04-24T00:22:03.887Z,7.97
2023-04-24T00:24:31.295Z,9.00
2023-04-24T00:26:59.002Z,10.32
2023-04-24T00:29:26.399Z,9.75
2023-04-24T00:31:53.788Z,10.32
2023-04-24T00:34:21.441Z,9.35
2023-04-24T00:36:51.374Z,9.98
2023-04-24T00:39:20.302Z,9.25
2023-04-24T00:41:49.192Z,9.80
2023-04-24T00:44:16.605Z,10.00
2023-04-24T00:46:44.211Z,8.88
2023-04-24T00:49:12.002Z,9.05
2023-04-24T00:51:41.661Z,9.77
2023-04-24T00:54:09.055Z,8.95
2023-04-24T00:56:36.903Z,10.15
2023-04-24T00:59:05.494Z,8.63
2023-04-24T01:01:33.763Z,9.05
2023-04-24T01:04:02.213Z,8.82
2023-04-24T01:06:32.257Z,8.70
2023-04-24T01:09:00.377Z,8.35
2023-04-24T01:11:31.155Z,8.30
2023-04-24T01:13:59.956Z,8.73
2023-04-24T01:16:27.751Z,9.07
2023-04-24T01:18:55.211Z,8.90
2023-04-24T01:21:24.700Z,8.57
2023-04-24T01:23:52.377Z,8.32
2023-04-24T01:26:21.222Z,9.88
2023-04-24T01:28:49.200Z,8.80
2023-04-24T01:31:17.056Z,9.57
2023-04-24T01:33:44.573Z,8.32
2023-04-24T01:36:12.365Z,10.15
2023-04-24T01:38:40.115Z,9.80
2023-04-24T01:41:07.539Z,9.90
2023-04-24T01:43:34.970Z,9.48
2023-04-24T01:46:02.731Z,9.38
2023-04-24T01:48:31.236Z,10.13
2023-04-24T01:50:58.623Z,9.80
2023-04-24T01:53:26.271Z,9.63
2023-04-24T01:55:53.951Z,10.10
2023-04-24T01:58:21.463Z,10.93
2023-04-24T02:00:49.134Z,9.95
2023-04-24T02:03:16.991Z,10.18
2023-04-24T02:05:47.504Z,9.65
2023-04-24T02:08:14.887Z,9.45
2023-04-24T02:10:42.571Z,11.18
2023-04-24T02:13:10.208Z,9.88
2023-04-24T02:15:37.581Z,9.40
2023-04-24T02:18:05.054Z,10.43
2023-04-24T02:20:35.079Z,9.93
2023-04-24T02:23:02.751Z,9.05
2023-04-24T02:25:30.114Z,8.95
2023-04-24T02:27:57.891Z,9.70
2023-04-24T02:30:25.300Z,9.77
2023-04-24T02:32:53.084Z,8.98
2023-04-24T02:35:21.020Z,10.20
2023-04-24T02:37:48.634Z,9.75
2023-04-24T02:40:16.097Z,9.85
2023-04-24T02:42:43.854Z,10.80
2023-04-24T02:45:11.450Z,9.23
2023-04-24T02:47:38.862Z,9.52
2023-04-24T02:50:07.456Z,9.32
2023-04-24T02:52:34.884Z,9.70
2023-04-24T02:55:02.264Z,10.57
2023-04-24T02:57:30.012Z,10.02
2023-04-24T02:59:57.476Z,9.02
2023-04-24T03:02:25.004Z,9.70
2023-04-24T03:04:52.721Z,8.02
2023-04-24T03:07:21.865Z,8.82
2023-04-24T03:09:49.381Z,9.18
2023-04-24T03:12:19.150Z,9.35
2023-04-24T03:14:46.551Z,8.27
2023-04-24T03:17:13.984Z,8.73
2023-04-24T03:19:41.974Z,8.30
2023-04-24T03:22:10.318Z,8.48
2023-04-24T03:24:37.840Z,8.40
2023-04-24T03:27:05.711Z,8.60
2023-04-24T03:29:33.846Z,8.73
2023-04-24T03:32:01.681Z,8.27
2023-04-24T03:34:29.719Z,8.60
2023-04-24T03:36:57.511Z,8.82
2023-04-24T03:39:26.335Z,9.20
2023-04-24T03:41:54.322Z,8.98
2023-04-24T03:44:22.306Z,8.93
2023-04-24T03:46:49.684Z,9.55
2023-04-24T03:49:18.078Z,8.77
2023-04-24T03:51:46.219Z,8.60
2023-04-24T03:54:15.308Z,7.87
2023-04-24T03:56:43.030Z,9.32
2023-04-24T03:59:11.015Z,8.15
2023-04-24T04:01:39.009Z,9.20
2023-04-24T04:04:10.597Z,8.75
2023-04-24T04:06:38.238Z,8.85
2023-04-24T04:09:06.005Z,9.60
2023-04-24T04:11:33.939Z,9.95
2023-04-24T04:14:03.440Z,9.73
2023-04-24T04:16:31.217Z,10.90
2023-04-24T04:19:00.370Z,11.15
2023-04-24T04:21:28.153Z,10.52
2023-04-24T04:23:57.773Z,10.60
2023-04-24T04:26:26.608Z,11.00
2023-04-24T04:28:54.732Z,11.10
2023-04-24T04:31:22.501Z,11.60
2023-04-24T04:33:50.392Z,11.45
2023-04-24T04:36:19.635Z,12.35
2023-04-24T04:38:47.573Z,11.60
2023-04-24T04:41:17.851Z,11.82
2023-04-24T04:43:47.584Z,12.60
2023-04-24T04:46:16.165Z,10.90
2023-04-24T04:48:44.303Z,11.40
2023-04-24T04:51:11.692Z,11.63
2023-04-24T04:53:39.410Z,11.30
2023-04-24T04:56:07.648Z,12.25
2023-04-24T04:58:35.400Z,11.45
2023-04-24T05:01:03.841Z,11.82
2023-04-24T05:03:31.905Z,11.25
2023-04-24T05:06:00.208Z,11.48
2023-04-24T05:08:28.109Z,12.18
2023-04-24T05:10:56.359Z,11.82
2023-04-24T05:13:35.717Z,11.52
2023-04-24T05:16:07.817Z,11.68
2023-04-24T05:18:35.734Z,12.05
2023-04-24T05:21:03.665Z,11.10
2023-04-24T05:23:31.623Z,10.95
2023-04-24T05:25:59.060Z,11.05
2023-04-24T05:28:29.459Z,11.93
2023-04-24T05:31:00.248Z,11.68
2023-04-24T05:33:27.792Z,11.18
2023-04-24T05:35:55.929Z,11.48
2023-04-24T05:38:23.777Z,11.12
2023-04-24T05:40:51.388Z,10.48
2023-04-24T05:43:18.774Z,12.18
2023-04-24T05:45:46.789Z,11.45
2023-04-24T05:48:14.321Z,11.68
2023-04-24T05:50:41.772Z,11.48
2023-04-24T05:53:11.605Z,12.77
2023-04-24T05:55:39.247Z,11.68
2023-04-24T05:58:07.164Z,12.00
2023-04-24T06:00:35.923Z,11.50
2023-04-24T06:03:04.925Z,11.70
2023-04-24T06:05:32.810Z,11.45
2023-04-24T06:08:00.265Z,12.18
2023-04-24T06:10:28.668Z,12.80
2023-04-24T06:13:01.328Z,12.70
2023-04-24T06:15:32.017Z,13.40
2023-04-24T06:17:59.976Z,12.27
2023-04-24T06:20:27.714Z,13.70
2023-04-24T06:22:55.539Z,13.43
2023-04-24T06:25:23.009Z,14.68
2023-04-24T06:27:51.654Z,13.57
2023-04-24T06:30:19.384Z,14.10
2023-04-24T06:32:46.756Z,14.63
2023-04-24T06:35:16.533Z,13.45
2023-04-24T06:37:44.231Z,15.05
2023-04-24T06:40:11.989Z,13.95
2023-04-24T06:42:41.965Z,15.48
2023-04-24T06:45:09.902Z,14.00
2023-04-24T06:47:38.977Z,14.32
2023-04-24T06:50:06.923Z,15.18
2023-04-24T06:52:34.592Z,14.32
2023-04-24T06:55:05.337Z,15.30
2023-04-24T06:57:33.530Z,15.45
2023-04-24T07:00:01.233Z,14.18
2023-04-24T07:02:28.869Z,15.38
2023-04-24T07:04:56.473Z,15.55
2023-04-24T07:07:25.627Z,14.95
2023-04-24T07:09:53.124Z,14.43
2023-04-24T07:12:22.653Z,15.10
2023-04-24T07:14:51.614Z,13.82
2023-04-24T07:17:19.359Z,13.85
2023-04-24T07:19:48.347Z,13.07
2023-04-24T07:22:18.043Z,14.60
2023-04-24T07:24:45.767Z,14.95
2023-04-24T07:27:13.229Z,13.18
2023-04-24T07:29:41.618Z,13.10
2023-04-24T07:32:13.167Z,13.25
2023-04-24T07:34:41.976Z,11.80
2023-04-24T07:37:09.408Z,12.40
2023-04-24T07:39:36.808Z,12.13
2023-04-24T07:42:04.585Z,11.38
2023-04-24T07:44:33.157Z,10.63
2023-04-24T07:47:00.907Z,11.65
2023-04-24T07:49:28.958Z,10.75
2023-04-24T07:51:56.357Z,11.35
2023-04-24T07:54:23.756Z,10.48
2023-04-24T07:56:51.471Z,10.65
2023-04-24T07:59:21.755Z,10.57
2023-04-24T08:01:49.173Z,11.77
2023-04-24T08:04:17.063Z,12.02
2023-04-24T08:06:45.036Z,11.00
2023-04-24T08:09:13.571Z,11.00
2023-04-24T08:11:41.280Z,10.52
2023-04-24T08:14:08.768Z,10.25
2023-04-24T08:16:36.509Z,11.00
2023-04-24T08:19:04.253Z,10.60
2023-04-24T08:21:31.684Z,9.55
2023-04-24T08:23:59.102Z,10.73
2023-04-24T08:26:26.781Z,10.02
2023-04-24T08:28:54.129Z,9.85
2023-04-24T08:31:21.911Z,10.30
2023-04-24T08:33:49.816Z,9.93
2023-04-24T08:36:17.231Z,9.02
2023-04-24T08:38:44.702Z,9.73
2023-04-24T08:41:12.591Z,9.70
2023-04-24T08:43:40.161Z,10.15
2023-04-24T08:46:11.161Z,8.90
2023-04-24T08:48:42.030Z,10.32
2023-04-24T08:51:10.558Z,10.30
2023-04-24T08:53:39.264Z,10.73
2023-04-24T08:56:07.558Z,9.63
2023-04-24T08:58:35.017Z,10.50
2023-04-24T09:01:03.088Z,9.13
2023-04-24T09:03:31.661Z,9.13
2023-04-24T09:06:00.054Z,9.38
2023-04-24T09:08:29.253Z,9.02
2023-04-24T09:10:59.312Z,8.05
2023-04-24T09:13:27.293Z,8.90
2023-04-24T09:15:55.315Z,9.90
2023-04-24T09:18:22.990Z,8.90
2023-04-24T09:21:09.358Z,8.65
2023-04-24T09:23:37.040Z,8.50
2023-04-24T09:26:08.800Z,8.82
2023-04-24T09:28:42.358Z,9.02
2023-04-24T09:31:15.037Z,8.85
2023-04-24T09:34:01.544Z,8.25
2023-04-24T09:36:38.675Z,9.18
2023-04-24T09:39:13.624Z,9.05
2023-04-24T09:42:01.126Z,9.15
2023-04-24T09:44:29.313Z,9.57
2023-04-24T09:47:01.024Z,9.38
2023-04-24T09:49:34.358Z,9.57
2023-04-24T09:52:10.864Z,8.63
2023-04-24T09:54:39.407Z,8.45
2023-04-24T09:57:09.184Z,8.60
2023-04-24T09:59:43.431Z,8.77
2023-04-24T10:02:21.529Z,8.35
2023-04-24T10:04:57.644Z,8.70
2023-04-24T10:09:55.763Z,8.90
2023-04-24T10:12:24.102Z,8.25
2023-04-24T10:14:51.682Z,8.80
2023-04-24T10:17:21.047Z,9.07
2023-04-24T10:19:48.514Z,8.35
2023-04-24T10:22:18.096Z,9.52
2023-04-24T10:24:47.541Z,8.27
2023-04-24T10:27:16.577Z,9.55
2023-04-24T10:29:45.909Z,8.73
2023-04-24T10:32:13.599Z,9.00
2023-04-24T10:34:41.254Z,8.73
2023-04-24T10:37:08.701Z,7.95
2023-04-24T10:39:38.434Z,8.75
2023-04-24T10:42:16.617Z,8.80
2023-04-24T10:44:44.395Z,9.15
2023-04-24T10:47:15.500Z,9.05
2023-04-24T10:49:43.704Z,9.60
2023-04-24T10:52:11.926Z,9.82
2023-04-24T10:54:46.818Z,8.98
2023-04-24T10:57:29.732Z,9.80
2023-04-24T11:00:22.527Z,9.05
2023-04-24T11:02:51.719Z,7.93
2023-04-24T11:05:20.729Z,6.55
2023-04-24T11:08:17.642Z,4.10
2023-04-24T11:10:46.860Z,3.67
2023-04-24T11:13:18.087Z,4.30
2023-04-24T11:15:46.156Z,3.92
2023-04-24T11:18:16.734Z,3.40
2023-04-24T11:20:45.292Z,3.60
2023-04-24T11:23:13.923Z,4.03
2023-04-24T11:25:42.661Z,3.33
2023-04-24T11:28:15.596Z,4.07
2023-04-24T11:30:43.249Z,4.00
2023-04-24T11:33:10.778Z,3.75
2023-04-24T11:35:41.116Z,3.72
2023-04-24T11:38:23.606Z,4.40
2023-04-24T11:40:53.227Z,3.60
2023-04-24T11:43:21.303Z,3.55
2023-04-24T11:45:51.977Z,2.67
2023-04-24T11:48:22.524Z,3.05
2023-04-24T11:50:51.528Z,3.15
2023-04-24T11:53:22.855Z,3.15
2023-04-24T11:55:50.689Z,2.60
2023-04-24T11:58:22.165Z,3.22
2023-04-24T12:00:57.103Z,2.92
2023-04-24T12:03:24.928Z,2.55
2023-04-24T12:05:52.555Z,2.75
2023-04-24T12:08:29.880Z,3.28
2023-04-24T12:10:59.683Z,2.95
2023-04-24T12:13:27.129Z,2.58
2023-04-24T12:15:54.784Z,2.90
2023-04-24T12:18:26.092Z,2.62
2023-04-24T12:20:53.637Z,3.17
2023-04-24T12:23:36.897Z,3.10
2023-04-24T12:26:07.625Z,3.65
2023-04-24T12:28:39.455Z,3.10
2023-04-24T12:31:07.803Z,2.87
2023-04-24T12:33:36.540Z,2.80
2023-04-24T12:36:04.111Z,2.60
2023-04-24T12:38:32.139Z,2.85
2023-04-24T12:41:08.036Z,3.05
2023-04-24T12:43:36.551Z,3.80
2023-04-24T12:46:04.862Z,2.70
2023-04-24T12:48:33.333Z,3.10
2023-04-24T12:51:03.977Z,3.30
2023-04-24T12:53:32.180Z,2.80
2023-04-24T12:55:59.757Z,3.05
2023-04-24T12:58:27.473Z,3.30
2023-04-24T13:00:55.346Z,2.95
2023-04-24T13:03:23.755Z,3.62
2023-04-24T13:05:51.815Z,2.78
2023-04-24T13:08:19.249Z,3.60
2023-04-24T13:10:47.178Z,3.12
2023-04-24T13:13:15.289Z,3.17
2023-04-24T13:15:42.763Z,3.20
2023-04-24T13:18:10.200Z,3.33
2023-04-24T13:20:37.983Z,3.65
2023-04-24T13:23:05.433Z,4.10
2023-04-24T13:25:36.731Z,3.37
2023-04-24T13:28:04.401Z,4.25
2023-04-24T13:30:32.443Z,4.47
2023-04-24T13:32:59.874Z,4.55
2023-04-24T13:35:27.614Z,4.45
2023-04-24T13:37:55.038Z,4.65
2023-04-24T13:40:22.466Z,5.60
2023-04-24T13:42:50.304Z,5.62
2023-04-24T13:45:25.236Z,6.57
2023-04-24T13:47:55.168Z,6.20
2023-04-24T13:50:22.857Z,6.05
2023-04-24T13:52:51.691Z,6.87
2023-04-24T13:55:19.391Z,6.37
2023-04-24T13:57:46.820Z,6.12
2023-04-24T14:00:14.541Z,6.60
2023-04-24T14:02:42.428Z,7.47
2023-04-24T14:05:12.019Z,8.27
2023-04-24T14:07:39.546Z,7.15
2023-04-24T14:10:07.781Z,7.65
2023-04-24T14:12:35.392Z,7.47
2023-04-24T14:15:02.908Z,8.70
2023-04-24T14:17:31.449Z,8.75
2023-04-24T14:20:00.941Z,9.70
2023-04-24T14:22:28.435Z,9.50
2023-04-24T14:24:56.141Z,9.60
2023-04-24T14:27:23.526Z,9.80
2023-04-24T14:29:50.911Z,9.57
2023-04-24T14:32:18.690Z,9.60
2023-04-24T14:34:46.072Z,8.85
2023-04-24T14:37:13.511Z,9.52
2023-04-24T14:39:41.236Z,8.57
2023-04-24T14:42:08.811Z,9.40
2023-04-24T14:44:36.207Z,8.35
2023-04-24T14:47:03.981Z,8.05
2023-04-24T14:49:31.532Z,8.57
2023-04-24T14:51:58.921Z,9.50
2023-04-24T14:54:26.662Z,8.77
2023-04-24T14:56:55.935Z,7.60
2023-04-24T14:59:23.407Z,8.88
2023-04-24T15:01:54.875Z,8.57
2023-04-24T15:04:29.816Z,9.02
2023-04-24T15:06:57.799Z,8.73
2023-04-24T15:09:26.536Z,8.20
2023-04-24T15:11:53.983Z,7.43
2023-04-24T15:14:21.695Z,6.82
2023-04-24T15:16:49.148Z,6.87
2023-04-24T15:19:16.606Z,7.12
2023-04-24T15:21:45.515Z,6.75
2023-04-24T15:24:12.884Z,7.15
2023-04-24T15:26:40.349Z,7.32
2023-04-24T15:29:08.042Z,6.18
2023-04-24T15:31:35.558Z,6.53
2023-04-24T15:34:03.004Z,6.62
2023-04-24T15:36:31.023Z,5.75
2023-04-24T15:38:58.474Z,6.18
2023-04-24T15:41:25.952Z,6.78
2023-04-24T15:43:53.834Z,5.65
2023-04-24T15:46:21.289Z,6.07
2023-04-24T15:48:48.966Z,4.93
2023-04-24T15:51:17.711Z,5.53
2023-04-24T15:53:47.242Z,5.30
2023-04-24T15:56:14.840Z,4.82
2023-04-24T15:58:42.820Z,5.12
2023-04-24T16:01:10.504Z,4.37
2023-04-24T16:03:38.858Z,4.80
2023-04-24T16:06:07.009Z,4.62
2023-04-24T16:08:35.703Z,4.50
2023-04-24T16:11:05.160Z,4.72
2023-04-24T16:13:34.355Z,4.65
2023-04-24T16:16:02.203Z,5.25
2023-04-24T16:18:29.931Z,4.75
2023-04-24T16:20:57.379Z,4.70
2023-04-24T16:23:25.069Z,5.32
2023-04-24T16:25:53.066Z,5.20
2023-04-24T16:28:20.520Z,5.40
2023-04-24T16:30:48.597Z,5.90
2023-04-24T16:33:16.664Z,5.55
2023-04-24T16:35:48.252Z,5.25
2023-04-24T16:38:16.414Z,6.18
2023-04-24T16:40:44.550Z,5.68
2023-04-24T16:43:11.940Z,4.70
2023-04-24T16:45:39.540Z,5.47
2023-04-24T16:48:07.790Z,5.97
2023-04-24T16:50:35.320Z,5.07
2023-04-24T16:53:04.563Z,5.40
2023-04-24T16:55:32.300Z,5.57
2023-04-24T16:58:00.250Z,5.50
2023-04-24T17:00:28.492Z,6.05
2023-04-24T17:02:57.603Z,5.47
2023-04-24T17:05:25.250Z,6.32
2023-04-24T17:07:54.092Z,6.70
2023-04-24T17:10:21.563Z,5.95
2023-04-24T17:12:51.461Z,6.18
2023-04-24T17:15:19.161Z,6.15
2023-04-24T17:17:46.644Z,6.30
2023-04-24T17:20:22.014Z,6.97
2023-04-24T17:22:52.131Z,7.43
2023-04-24T17:25:20.539Z,7.20
2023-04-24T17:27:48.533Z,7.47
2023-04-24T17:30:18.382Z,7.70
2023-04-24T17:32:47.324Z,8.38
2023-04-24T17:35:15.659Z,7.62
2023-04-24T17:37:43.853Z,7.43
2023-04-24T17:40:12.563Z,7.03
2023-04-24T17:42:41.844Z,6.70
2023-04-24T17:45:13.893Z,6.37
2023-04-24T17:47:42.716Z,5.60
2023-04-24T17:50:11.127Z,4.80
2023-04-24T17:52:38.695Z,5.00
2023-04-24T17:55:08.038Z,4.75
2023-04-24T17:57:36.767Z,4.28
2023-04-24T18:00:05.275Z,4.28
2023-04-24T18:02:34.409Z,4.20
2023-04-24T18:05:02.871Z,4.10
2023-04-24T18:07:30.803Z,4.03
2023-04-24T18:09:59.980Z,3.42
2023-04-24T18:12:28.310Z,3.17
2023-04-24T18:15:06.732Z,3.30
2023-04-24T18:17:42.146Z,2.90
2023-04-24T18:20:14.117Z,3.00
2023-04-24T18:22:43.216Z,3.30
2023-04-24T18:25:11.890Z,2.87
2023-04-24T18:27:41.255Z,2.80
2023-04-24T18:30:14.395Z,2.90
2023-04-24T18:32:43.134Z,2.70
2023-04-24T18:35:12.643Z,2.40
2023-04-24T18:37:40.861Z,2.87
2023-04-24T18:40:09.987Z,3.00
2023-04-24T18:42:40.274Z,2.83
2023-04-24T18:45:10.878Z,2.80
2023-04-24T18:47:40.562Z,2.87
2023-04-24T18:50:09.164Z,2.50
2023-04-24T18:52:37.646Z,2.55
2023-04-24T18:55:07.100Z,2.50
2023-04-24T18:57:38.563Z,2.72
2023-04-24T19:00:08.031Z,2.40
2023-04-24T19:02:36.745Z,2.30
2023-04-24T19:05:05.147Z,2.53
2023-04-24T19:07:33.799Z,2.22
2023-04-24T19:10:01.882Z,2.33
2023-04-24T19:12:30.409Z,2.58
2023-04-24T19:14:59.157Z,2.60
2023-04-24T19:17:27.351Z,2.20
2023-04-24T19:19:55.462Z,2.00
2023-04-24T19:22:24.184Z,2.10
2023-04-24T19:24:53.720Z,2.10
2023-04-24T19:27:21.993Z,3.22
2023-04-24T19:29:52.505Z,2.40
2023-04-24T19:32:20.766Z,2.25
2023-04-24T19:34:48.810Z,2.10
2023-04-24T19:37:17.207Z,1.80
2023-04-24T19:39:48.113Z,2.20
2023-04-24T19:42:19.450Z,2.28
2023-04-24T19:44:52.084Z,2.08
2023-04-24T19:47:20.457Z,2.28
2023-04-24T19:49:48.832Z,2.17
2023-04-24T19:52:17.485Z,2.53
2023-04-24T19:54:45.297Z,2.50
2023-04-24T19:57:14.385Z,2.15
2023-04-24T19:59:43.617Z,2.10
2023-04-24T20:02:13.577Z,2.40
2023-04-24T20:04:42.840Z,2.30
2023-04-24T20:07:10.396Z,2.17
2023-04-24T20:09:38.440Z,2.65
2023-04-24T20:12:06.647Z,2.55
2023-04-24T20:14:34.717Z,2.87
2023-04-24T20:17:03.664Z,2.62
2023-04-24T20:19:31.528Z,2.95
2023-04-24T20:21:59.566Z,3.30
2023-04-24T20:24:27.066Z,3.87
2023-04-24T20:26:54.723Z,4.60
2023-04-24T20:29:22.289Z,5.00
2023-04-24T20:31:49.981Z,5.10
2023-04-24T20:34:17.970Z,4.35
2023-04-24T20:36:49.588Z,5.32
2023-04-24T20:39:23.279Z,4.82
2023-04-24T20:41:51.432Z,5.20
2023-04-24T20:44:30.550Z,4.75
2023-04-24T20:46:58.028Z,5.37
2023-04-24T20:49:26.732Z,5.00
2023-04-24T20:51:54.232Z,4.95
2023-04-24T20:54:21.600Z,4.60
2023-04-24T20:56:49.693Z,5.30
2023-04-24T20:59:18.420Z,4.65
2023-04-24T21:01:48.759Z,4.80
2023-04-24T21:04:16.807Z,4.60
2023-04-24T21:06:44.326Z,4.97
2023-04-24T21:09:11.789Z,4.20
2023-04-24T21:11:39.887Z,4.62
2023-04-24T21:14:07.861Z,3.87
2023-04-24T21:16:35.783Z,4.15
2023-04-24T21:19:03.643Z,3.85
2023-04-24T21:21:37.825Z,3.42
2023-04-24T21:24:05.711Z,3.17
2023-04-24T21:26:33.156Z,3.03
2023-04-24T21:29:00.595Z,3.47
2023-04-24T21:31:28.355Z,3.20
2023-04-24T21:33:56.307Z,2.53
2023-04-24T21:36:23.707Z,3.12
2023-04-24T21:38:51.390Z,2.97
2023-04-24T21:41:18.957Z,2.78
2023-04-24T21:43:47.345Z,2.47
2023-04-24T21:46:16.773Z,2.60
2023-04-24T21:48:44.242Z,2.60
2023-04-24T21:51:11.827Z,2.90
2023-04-24T21:53:39.541Z,2.62
2023-04-24T21:56:07.109Z,2.90
2023-04-24T21:58:36.140Z,2.83
2023-04-24T22:01:04.471Z,2.70
2023-04-24T22:03:32.541Z,2.40
2023-04-24T22:06:00.150Z,2.22
2023-04-24T22:08:27.947Z,3.05
2023-04-24T22:10:55.621Z,2.28
2023-04-24T22:13:23.014Z,2.00
2023-04-24T22:15:51.086Z,1.62
2023-04-24T22:18:18.910Z,1.42
2023-04-24T22:20:49.278Z,1.80
2023-04-24T22:23:16.656Z,1.48
2023-04-24T22:25:44.485Z,1.62
2023-04-24T22:28:11.891Z,1.23
2023-04-24T22:30:39.297Z,1.70
2023-04-24T22:33:08.940Z,1.80
2023-04-24T22:35:37.501Z,1.50
2023-04-24T22:38:04.917Z,1.95
2023-04-24T22:40:34.940Z,1.87
2023-04-24T22:43:02.402Z,1.85
2023-04-24T22:45:32.104Z,2.00
2023-04-24T22:48:02.658Z,2.00
2023-04-24T22:50:30.412Z,1.75
2023-04-24T22:52:57.794Z,1.70
2023-04-24T22:55:25.596Z,1.80
2023-04-24T22:57:53.709Z,1.77
2023-04-24T23:00:21.744Z,1.60
2023-04-24T23:02:49.603Z,1.40
2023-04-24T23:05:17.518Z,1.45
2023-04-24T23:07:46.248Z,1.30
2023-04-24T23:10:14.030Z,1.30
2023-04-24T23:12:41.427Z,1.40
2023-04-24T23:15:11.420Z,1.40
2023-04-24T23:17:39.206Z,1.40
2023-04-24T23:20:07.910Z,1.23
2023-04-24T23:22:35.303Z,1.40
2023-04-24T23:25:02.964Z,1.20
2023-04-24T23:27:33.245Z,1.23
2023-04-24T23:30:00.719Z,1.23
2023-04-24T23:32:28.545Z,1.87
2023-04-24T23:34:56.491Z,1.12
2023-04-24T23:37:23.907Z,1.45
2023-04-24T23:39:51.760Z,1.42
2023-04-24T23:42:19.279Z,1.50
2023-04-24T23:44:46.708Z,1.60
2023-04-24T23:47:14.384Z,1.37
2023-04-24T23:49:42.327Z,1.40
2023-04-24T23:52:09.765Z,1.70
2023-04-24T23:54:37.448Z,1.40
2023-04-24T23:57:23.546Z,1.80
2023-04-24T23:59:51.293Z,2.00
